Time;durP1;ratioP1;P1;durP2;ratioP2;P2;SDS_P1;SDS_P2;PMS_P1;PMS_P2;Temp;Humidity;BMP_temperature;BMP_pressure;BME280_temperature;BME280_humidity;BME280_pressure;Samples;Min_cycle;Max_cycle;Signal;HPM_P1;HPM_P2
2022/12/06 00:01:18;;;;;;;703.43;632.23;;;1.60;99.90;;;;;;5018511;28;20532;-80
2022/12/06 00:03:47;;;;;;;703.80;632.73;;;1.60;99.90;;;;;;5019777;28;20457;-80
2022/12/06 00:06:16;;;;;;;697.40;627.27;;;1.60;99.90;;;;;;5019659;28;20489;-80
2022/12/06 00:08:44;;;;;;;707.03;635.93;;;1.60;99.90;;;;;;5018503;28;20495;-80
2022/12/06 00:11:13;;;;;;;696.53;625.77;;;1.60;99.90;;;;;;5017844;28;20532;-80
2022/12/06 00:13:42;;;;;;;698.37;627.47;;;1.70;99.90;;;;;;5028778;28;20484;-80
2022/12/06 00:16:11;;;;;;;699.83;628.80;;;1.70;99.90;;;;;;5036912;28;20487;-81
2022/12/06 00:18:40;;;;;;;691.10;620.10;;;1.70;99.90;;;;;;5038663;28;20462;-80
2022/12/06 00:21:08;;;;;;;697.17;625.87;;;1.70;99.90;;;;;;5037124;28;21043;-80
2022/12/06 00:23:37;;;;;;;696.80;626.60;;;1.70;99.90;;;;;;5037173;28;20983;-80
2022/12/06 00:26:04;;;;;;;723.73;651.80;;;1.80;99.90;;;;;;5036896;28;20444;-80
2022/12/06 00:28:31;;;;;;;726.30;656.00;;;1.80;99.90;;;;;;5036639;28;20542;-81
2022/12/06 00:31:00;;;;;;;714.73;642.83;;;1.80;99.90;;;;;;5037164;28;20472;-80
2022/12/06 00:33:27;;;;;;;728.27;655.97;;;1.90;99.90;;;;;;5038074;28;20492;-80
2022/12/06 00:35:58;;;;;;;699.47;627.10;;;2.00;99.90;;;;;;5038518;28;20735;-80
2022/12/06 00:38:25;;;;;;;699.37;627.57;;;2.00;99.90;;;;;;5038359;28;20506;-80
2022/12/06 00:40:59;;;;;;;689.87;618.17;;;2.00;99.90;;;;;;5038756;28;21008;-80
2022/12/06 00:43:25;;;;;;;701.03;628.67;;;2.10;99.90;;;;;;5038345;28;20484;-80
2022/12/06 00:45:52;;;;;;;691.47;620.93;;;2.10;99.90;;;;;;5038284;28;20491;-81
2022/12/06 00:48:21;;;;;;;695.40;622.40;;;2.20;99.90;;;;;;5038755;28;20511;-80
2022/12/06 00:50:48;;;;;;;685.10;612.83;;;2.20;99.90;;;;;;5038258;28;20472;-79
2022/12/06 00:53:15;;;;;;;691.07;616.97;;;2.10;99.90;;;;;;5037959;28;20506;-79
2022/12/06 00:55:43;;;;;;;692.20;619.80;;;2.10;99.90;;;;;;5038326;28;20563;-80
2022/12/06 00:58:10;;;;;;;688.80;617.40;;;2.10;99.90;;;;;;5038784;28;20518;-80
2022/12/06 01:00:37;;;;;;;691.07;617.43;;;2.20;99.90;;;;;;5038508;28;20551;-80
2022/12/06 01:03:05;;;;;;;695.30;621.37;;;2.20;99.90;;;;;;5038277;28;21012;-79
2022/12/06 01:05:33;;;;;;;696.57;623.50;;;2.20;99.90;;;;;;5037545;28;20480;-80
2022/12/06 01:08:00;;;;;;;730.53;657.50;;;2.20;99.90;;;;;;5037330;28;21007;-79
2022/12/06 01:10:27;;;;;;;723.93;650.73;;;2.30;99.90;;;;;;5036976;28;20837;-78
2022/12/06 01:12:54;;;;;;;721.60;648.67;;;2.20;99.90;;;;;;5036973;28;20487;-80
2022/12/06 01:15:20;;;;;;;730.20;657.20;;;2.30;99.90;;;;;;5037151;28;20476;-79
2022/12/06 01:17:47;;;;;;;711.60;639.80;;;2.40;99.90;;;;;;5036704;28;20456;-79
2022/12/06 01:20:14;;;;;;;704.47;631.13;;;2.30;99.90;;;;;;5037043;28;20459;-78
2022/12/06 01:22:42;;;;;;;694.83;623.67;;;2.30;99.90;;;;;;5036511;28;20448;-79
2022/12/06 01:25:09;;;;;;;692.70;621.20;;;2.20;99.90;;;;;;5036723;28;20459;-79
2022/12/06 01:27:36;;;;;;;700.13;626.77;;;2.30;99.90;;;;;;5036035;28;20879;-79
2022/12/06 01:30:03;;;;;;;684.70;612.63;;;2.20;99.90;;;;;;5035374;28;20452;-79
2022/12/06 01:32:30;;;;;;;695.80;624.60;;;2.30;99.90;;;;;;5034387;28;20480;-79
2022/12/06 01:34:57;;;;;;;686.93;615.10;;;2.30;99.90;;;;;;5034472;28;20471;-80
2022/12/06 01:37:23;;;;;;;687.70;617.37;;;2.30;99.90;;;;;;5034136;28;20491;-81
2022/12/06 01:39:51;;;;;;;689.37;617.77;;;2.30;99.90;;;;;;5034325;28;20453;-78
2022/12/06 01:42:19;;;;;;;692.67;621.97;;;2.40;99.90;;;;;;5033124;28;20479;-78
2022/12/06 01:44:48;;;;;;;697.03;624.10;;;2.40;99.90;;;;;;5034426;28;20453;-78
2022/12/06 01:47:19;;;;;;;683.77;611.97;;;2.30;99.90;;;;;;5034061;28;20463;-78
2022/12/06 01:49:50;;;;;;;693.70;623.23;;;2.40;99.90;;;;;;5033883;28;20819;-79
2022/12/06 01:52:18;;;;;;;718.97;644.77;;;2.50;99.90;;;;;;5033339;28;20480;-78
2022/12/06 01:54:46;;;;;;;716.20;643.30;;;2.50;99.90;;;;;;5033744;28;20487;-78
2022/12/06 01:57:16;;;;;;;712.60;640.40;;;2.50;99.90;;;;;;5034080;28;20452;-78
2022/12/06 01:59:43;;;;;;;704.73;633.50;;;2.50;99.90;;;;;;5033643;28;20455;-78
2022/12/06 02:02:10;;;;;;;698.60;625.70;;;2.60;99.90;;;;;;5033330;28;20472;-78
2022/12/06 02:04:37;;;;;;;701.43;628.17;;;2.60;99.90;;;;;;5033603;28;20456;-78
2022/12/06 02:07:05;;;;;;;699.13;627.27;;;2.60;99.90;;;;;;5034033;28;20452;-78
2022/12/06 02:09:32;;;;;;;676.70;605.63;;;2.60;99.90;;;;;;5033309;28;20459;-78
2022/12/06 02:11:58;;;;;;;681.60;610.10;;;2.60;99.90;;;;;;5033222;28;20479;-79
2022/12/06 02:14:32;;;;;;;688.80;617.00;;;2.60;99.90;;;;;;5032985;28;20953;-79
2022/12/06 02:17:12;;;;;;;690.73;619.30;;;2.70;99.90;;;;;;5033203;28;20463;-80
2022/12/06 02:20:03;;;;;;;679.47;609.33;;;2.70;99.90;;;;;;5033258;28;20456;-77
2022/12/06 02:22:46;;;;;;;688.43;617.77;;;2.70;99.90;;;;;;5032783;28;20472;-78
2022/12/06 02:25:34;;;;;;;687.37;615.67;;;2.70;99.90;;;;;;5032729;28;20444;-78
2022/12/06 02:28:25;;;;;;;702.57;631.20;;;2.70;99.90;;;;;;5032901;28;20452;-79
2022/12/06 02:30:57;;;;;;;715.37;643.50;;;2.70;99.90;;;;;;5033097;28;20483;-78
2022/12/06 02:33:31;;;;;;;721.20;648.23;;;2.60;99.90;;;;;;5033254;28;20467;-79
2022/12/06 02:36:04;;;;;;;723.00;650.50;;;2.70;99.90;;;;;;5033210;28;20460;-78
2022/12/06 02:38:36;;;;;;;728.50;655.27;;;2.70;99.90;;;;;;5033509;28;20478;-78
2022/12/06 02:41:10;;;;;;;717.40;643.20;;;2.70;99.90;;;;;;5033024;28;20479;-78
2022/12/06 02:43:41;;;;;;;700.13;627.03;;;2.70;99.90;;;;;;5033253;28;20452;-78
2022/12/06 02:46:11;;;;;;;698.87;626.10;;;2.70;99.90;;;;;;5033597;28;20453;-78
2022/12/06 02:48:40;;;;;;;693.63;620.80;;;2.70;99.90;;;;;;5033972;28;20475;-78
2022/12/06 02:51:10;;;;;;;689.10;618.10;;;2.70;99.90;;;;;;5033105;28;20473;-78
2022/12/06 02:53:41;;;;;;;681.70;611.47;;;2.70;99.90;;;;;;5032894;28;20464;-78
2022/12/06 02:56:08;;;;;;;690.40;618.30;;;2.70;99.90;;;;;;5033259;28;20570;-78
2022/12/06 02:58:36;;;;;;;693.37;618.57;;;2.80;99.90;;;;;;5033810;28;20452;-78
2022/12/06 03:01:09;;;;;;;682.77;609.47;;;2.80;99.90;;;;;;5033107;28;20529;-79
2022/12/06 03:03:53;;;;;;;703.53;626.30;;;2.70;99.90;;;;;;5033816;28;20463;-79
2022/12/06 03:06:45;;;;;;;719.43;626.10;;;2.80;99.90;;;;;;5033938;28;20447;-79
2022/12/06 03:09:39;;;;;;;738.13;638.53;;;2.80;99.90;;;;;;5033728;28;20452;-79
2022/12/06 03:12:11;;;;;;;708.63;630.63;;;2.80;99.90;;;;;;5033443;28;20476;-79
2022/12/06 03:14:50;;;;;;;711.10;631.50;;;2.90;99.90;;;;;;5033606;28;20517;-78
2022/12/06 03:17:22;;;;;;;725.57;644.13;;;2.80;99.90;;;;;;5033492;28;20456;-79
2022/12/06 03:19:56;;;;;;;718.27;642.57;;;2.90;99.90;;;;;;5033613;28;20452;-79
2022/12/06 03:22:29;;;;;;;718.57;640.97;;;2.90;99.90;;;;;;5033311;28;21033;-79
2022/12/06 03:24:56;;;;;;;702.90;628.17;;;2.90;99.90;;;;;;5033531;28;20964;-79
2022/12/06 03:27:24;;;;;;;708.00;630.67;;;2.90;99.90;;;;;;5033979;28;20456;-79
2022/12/06 03:29:55;;;;;;;711.00;636.53;;;2.80;99.90;;;;;;5033527;28;20460;-80
2022/12/06 03:32:25;;;;;;;707.87;635.13;;;2.90;99.90;;;;;;5032894;28;20859;-79
2022/12/06 03:34:59;;;;;;;719.87;644.80;;;2.90;99.90;;;;;;5033272;28;20522;-79
2022/12/06 03:37:30;;;;;;;719.97;646.37;;;2.90;99.90;;;;;;5033449;28;20471;-79
2022/12/06 03:40:05;;;;;;;731.37;657.87;;;2.90;99.90;;;;;;5033432;28;20448;-79
2022/12/06 03:42:33;;;;;;;727.90;654.70;;;3.00;99.90;;;;;;5032942;28;20475;-79
2022/12/06 03:45:00;;;;;;;742.30;667.73;;;3.00;99.90;;;;;;5033265;28;20956;-80
2022/12/06 03:47:33;;;;;;;727.27;651.90;;;3.00;99.90;;;;;;5033059;28;20456;-79
2022/12/06 03:50:05;;;;;;;723.97;648.40;;;2.90;99.90;;;;;;5033405;28;20463;-79
2022/12/06 03:52:33;;;;;;;691.80;617.77;;;3.00;99.90;;;;;;5033231;28;20526;-79
2022/12/06 03:55:00;;;;;;;705.13;631.50;;;3.00;99.90;;;;;;5033333;28;20506;-79
2022/12/06 03:57:26;;;;;;;706.43;631.37;;;3.10;99.90;;;;;;5032677;28;20455;-79
2022/12/06 03:59:53;;;;;;;699.63;623.10;;;3.10;99.90;;;;;;5033030;28;20456;-79
2022/12/06 04:02:20;;;;;;;701.60;626.70;;;3.10;99.90;;;;;;5032890;28;20476;-79
2022/12/06 04:04:48;;;;;;;692.40;615.80;;;3.00;99.90;;;;;;5033495;28;20452;-79
2022/12/06 04:07:20;;;;;;;686.77;612.17;;;3.10;99.90;;;;;;5037124;28;20460;-79
2022/12/06 04:15:11;;;;;;;694.83;618.47;;;3.10;99.90;;;;;;5036591;28;20482;-79
2022/12/06 04:20:23;;;;;;;702.53;624.07;;;3.20;99.90;;;;;;5035511;28;20451;-78
2022/12/06 04:23:02;;;;;;;710.17;624.43;;;3.20;99.90;;;;;;5035247;28;20817;-79
2022/12/06 04:25:29;;;;;;;733.20;617.70;;;3.20;99.90;;;;;;5035850;28;20789;-79
2022/12/06 04:38:54;;;;;;;727.90;648.77;;;3.30;99.90;;;;;;5035296;28;20813;-79
2022/12/06 04:44:02;;;;;;;736.10;658.47;;;3.30;99.90;;;;;;5034534;28;20542;-78
2022/12/06 04:46:29;;;;;;;739.70;660.90;;;3.30;99.90;;;;;;5035001;28;20433;-78
2022/12/06 04:48:55;;;;;;;732.87;654.07;;;3.40;99.90;;;;;;5035002;28;20826;-78
2022/12/06 04:51:25;;;;;;;750.37;670.57;;;3.40;99.90;;;;;;5034703;28;20842;-78
2022/12/06 04:53:54;;;;;;;756.80;679.00;;;3.30;99.90;;;;;;5035090;28;20451;-78
2022/12/06 04:56:20;;;;;;;764.83;684.57;;;3.40;99.90;;;;;;5034697;28;20480;-79
2022/12/06 04:58:47;;;;;;;759.80;679.77;;;3.40;99.90;;;;;;5034631;28;20465;-78
2022/12/06 05:01:14;;;;;;;752.57;674.67;;;3.50;99.90;;;;;;5034526;28;20471;-79
2022/12/06 05:03:41;;;;;;;766.43;687.40;;;3.50;99.90;;;;;;5034646;28;20459;-79
2022/12/06 05:06:08;;;;;;;762.93;683.80;;;3.50;99.90;;;;;;5035349;28;20455;-79
2022/12/06 05:08:35;;;;;;;763.07;681.27;;;3.40;99.90;;;;;;5035669;28;20460;-79
2022/12/06 05:11:03;;;;;;;778.43;696.13;;;3.50;99.90;;;;;;5035496;28;20488;-79
2022/12/06 05:13:29;;;;;;;780.70;695.90;;;3.50;99.90;;;;;;5035851;28;20464;-79
2022/12/06 05:15:58;;;;;;;774.30;691.20;;;3.50;99.90;;;;;;5034978;28;20479;-80
2022/12/06 05:18:25;;;;;;;803.13;706.17;;;3.50;99.90;;;;;;5034049;28;20459;-79
2022/12/06 05:21:00;;;;;;;818.17;723.17;;;3.50;99.90;;;;;;5034726;28;20476;-79
2022/12/06 05:23:27;;;;;;;801.07;714.93;;;3.50;99.90;;;;;;5034917;28;20452;-79
2022/12/06 05:25:58;;;;;;;808.17;720.50;;;3.50;99.90;;;;;;5035508;28;20455;-79
2022/12/06 05:28:26;;;;;;;790.17;706.37;;;3.50;99.90;;;;;;5036251;28;20440;-79
2022/12/06 05:30:53;;;;;;;800.93;718.60;;;3.60;99.90;;;;;;5036560;28;20507;-79
2022/12/06 05:33:21;;;;;;;776.67;695.07;;;3.50;99.90;;;;;;5035627;28;20464;-79
2022/12/06 05:35:47;;;;;;;772.73;689.23;;;3.60;99.90;;;;;;5036519;28;20489;-79
2022/12/06 05:38:14;;;;;;;770.33;689.33;;;3.60;99.90;;;;;;5037339;28;20459;-79
2022/12/06 05:40:42;;;;;;;790.10;709.37;;;3.60;99.90;;;;;;5036513;28;20485;-79
2022/12/06 05:43:09;;;;;;;778.07;696.07;;;3.60;99.90;;;;;;5036207;28;20457;-79
2022/12/06 05:45:37;;;;;;;775.67;694.90;;;3.60;99.90;;;;;;5036748;28;20479;-79
2022/12/06 05:48:07;;;;;;;767.73;689.13;;;3.60;99.90;;;;;;5036074;28;20459;-79
2022/12/06 05:50:35;;;;;;;754.40;672.20;;;3.70;99.90;;;;;;5035528;28;20469;-79
2022/12/06 05:53:02;;;;;;;773.77;691.40;;;3.60;99.90;;;;;;5036573;28;20460;-80
2022/12/06 05:55:29;;;;;;;801.03;716.97;;;3.80;99.90;;;;;;5036646;28;20821;-81
2022/12/06 05:57:56;;;;;;;795.57;710.80;;;3.80;99.90;;;;;;5037109;28;20452;-80
2022/12/06 06:00:24;;;;;;;787.77;696.90;;;3.70;99.90;;;;;;5035565;28;20488;-81
2022/12/06 06:02:54;;;;;;;791.53;705.53;;;3.70;99.90;;;;;;5036158;28;20458;-80
2022/12/06 06:05:21;;;;;;;798.00;712.87;;;3.80;99.90;;;;;;5035604;28;20798;-79
2022/12/06 06:07:48;;;;;;;775.43;692.50;;;3.80;99.90;;;;;;5033350;28;20464;-78
2022/12/06 06:10:27;;;;;;;770.90;690.10;;;3.70;99.90;;;;;;5048226;28;20447;-78
2022/12/06 06:12:54;;;;;;;794.27;710.77;;;3.90;99.90;;;;;;5053682;28;20443;-78
2022/12/06 06:15:23;;;;;;;766.20;688.40;;;3.80;99.90;;;;;;5052961;28;20455;-76
2022/12/06 06:18:03;;;;;;;745.97;667.00;;;3.80;99.90;;;;;;5056673;28;20458;-80
2022/12/06 06:20:31;;;;;;;765.77;689.60;;;3.90;99.90;;;;;;5056509;28;20482;-81
2022/12/06 06:23:08;;;;;;;778.73;701.53;;;3.80;99.90;;;;;;5056332;28;20443;-80
2022/12/06 06:25:39;;;;;;;776.63;700.03;;;3.80;99.90;;;;;;5055157;28;20462;-80
2022/12/06 06:28:08;;;;;;;777.50;698.50;;;3.80;99.90;;;;;;5055060;28;20766;-80
2022/12/06 06:30:40;;;;;;;755.20;678.43;;;3.80;99.90;;;;;;5055393;28;20930;-80
2022/12/06 06:33:09;;;;;;;739.57;661.20;;;3.90;99.90;;;;;;5056377;28;20463;-80
2022/12/06 06:35:35;;;;;;;736.87;659.47;;;3.90;99.90;;;;;;5055901;28;20833;-80
2022/12/06 06:38:03;;;;;;;731.97;654.43;;;3.80;99.90;;;;;;5055987;28;20459;-79
2022/12/06 06:40:30;;;;;;;724.53;647.90;;;3.80;99.90;;;;;;5055250;28;20463;-80
2022/12/06 06:43:16;;;;;;;722.43;645.80;;;3.90;99.90;;;;;;5044966;28;20463;-80
2022/12/06 06:45:43;;;;;;;726.50;647.97;;;3.90;99.90;;;;;;5035306;28;20518;-81
2022/12/06 06:48:12;;;;;;;728.10;649.40;;;3.90;99.90;;;;;;5035253;28;20455;-80
2022/12/06 06:50:57;;;;;;;728.43;651.27;;;4.00;99.90;;;;;;5034540;28;20570;-80
2022/12/06 06:53:26;;;;;;;723.83;644.87;;;3.90;99.90;;;;;;5034925;28;20433;-79
2022/12/06 06:55:58;;;;;;;711.03;632.37;;;3.90;99.90;;;;;;5035624;28;20486;-80
2022/12/06 06:58:25;;;;;;;716.27;636.17;;;3.90;99.90;;;;;;5034969;28;20552;-81
2022/12/06 07:00:53;;;;;;;707.83;630.67;;;4.00;99.90;;;;;;5034758;28;20480;-80
2022/12/06 07:03:22;;;;;;;712.07;633.27;;;4.00;99.90;;;;;;5034990;28;20462;-80
2022/12/06 07:05:54;;;;;;;718.67;632.63;;;3.90;99.90;;;;;;5033479;28;20459;-80
2022/12/06 07:08:21;;;;;;;729.20;624.90;;;3.90;99.90;;;;;;5033671;28;20475;-80
2022/12/06 07:10:48;;;;;;;748.97;636.20;;;4.10;99.90;;;;;;5033227;28;20476;-79
2022/12/06 07:13:15;;;;;;;763.53;645.37;;;4.10;99.90;;;;;;5036214;28;20463;-80
2022/12/06 07:15:42;;;;;;;725.33;628.97;;;4.00;99.90;;;;;;5034440;28;20452;-81
2022/12/06 07:18:09;;;;;;;717.73;638.93;;;4.10;99.90;;;;;;5034377;28;20453;-81
2022/12/06 07:20:37;;;;;;;715.27;633.70;;;4.10;99.90;;;;;;5032894;28;20945;-80
2022/12/06 07:23:04;;;;;;;708.83;630.40;;;4.10;99.90;;;;;;5033741;28;20452;-78
2022/12/06 07:25:32;;;;;;;727.30;645.43;;;4.10;99.90;;;;;;5033684;28;20463;-79
2022/12/06 07:27:59;;;;;;;741.63;662.97;;;4.20;99.90;;;;;;5033546;28;20510;-77
2022/12/06 07:30:26;;;;;;;727.07;646.87;;;4.20;99.90;;;;;;5033375;28;20483;-79
2022/12/06 07:32:53;;;;;;;749.90;668.03;;;4.20;99.90;;;;;;5036899;28;20471;-83
2022/12/06 07:35:20;;;;;;;773.60;690.60;;;4.20;99.90;;;;;;5034122;28;20459;-77
2022/12/06 07:37:48;;;;;;;829.22;679.22;;;4.20;99.90;;;;;;5033489;28;20814;-79
2022/12/06 07:40:17;;;;;;;745.07;644.20;;;4.20;99.90;;;;;;5034339;28;20202;-80
2022/12/06 07:45:28;;;;;;;778.73;640.47;;;4.20;99.90;;;;;;5037937;28;20509;-80
2022/12/06 07:47:55;;;;;;;779.37;637.27;;;4.30;99.90;;;;;;5039416;28;20458;-80
2022/12/06 07:50:25;;;;;;;795.07;638.43;;;4.30;99.90;;;;;;5037495;28;20478;-80
2022/12/06 07:52:53;;;;;;;800.73;663.43;;;4.20;99.90;;;;;;5038151;28;20455;-80
2022/12/06 07:55:20;;;;;;;783.13;645.67;;;4.30;99.90;;;;;;5037307;28;20452;-79
2022/12/06 07:57:46;;;;;;;788.87;652.10;;;4.40;99.90;;;;;;5038199;28;20483;-80
2022/12/06 08:00:15;;;;;;;800.37;649.60;;;4.30;99.90;;;;;;5037839;28;20798;-79
2022/12/06 08:02:47;;;;;;;770.87;667.00;;;4.30;99.90;;;;;;5038375;28;20456;-80
2022/12/06 08:05:14;;;;;;;768.03;634.70;;;4.30;99.90;;;;;;5038161;28;20482;-80
2022/12/06 08:07:40;;;;;;;724.70;642.97;;;4.40;99.90;;;;;;5039522;28;20452;-81
2022/12/06 08:10:09;;;;;;;734.20;654.13;;;4.40;99.90;;;;;;5037898;28;20460;-79
2022/12/06 08:12:36;;;;;;;725.73;645.90;;;4.40;99.90;;;;;;5037701;28;20479;-80
2022/12/06 08:15:03;;;;;;;727.80;646.27;;;4.40;99.90;;;;;;5037469;28;20542;-80
2022/12/06 08:17:30;;;;;;;725.50;645.83;;;4.40;99.90;;;;;;5037595;28;20509;-79
2022/12/06 08:19:57;;;;;;;731.33;651.53;;;4.50;99.90;;;;;;5037631;28;20463;-80
2022/12/06 08:22:23;;;;;;;732.67;653.50;;;4.60;99.90;;;;;;5037767;28;20472;-80
2022/12/06 08:24:50;;;;;;;729.67;642.17;;;4.50;99.90;;;;;;5037546;28;20456;-80
2022/12/06 08:27:18;;;;;;;725.60;646.83;;;4.60;99.90;;;;;;5037464;28;20486;-80
2022/12/06 08:29:45;;;;;;;708.60;628.97;;;4.60;99.90;;;;;;5037305;28;20452;-80
2022/12/06 08:32:12;;;;;;;712.07;624.90;;;4.60;99.90;;;;;;5037169;28;20483;-78
2022/12/06 08:34:39;;;;;;;722.37;643.37;;;4.60;99.90;;;;;;5037748;28;20432;-80
2022/12/06 08:37:05;;;;;;;719.30;639.83;;;4.70;99.90;;;;;;5037292;28;20480;-80
2022/12/06 08:39:32;;;;;;;706.30;628.33;;;4.60;99.90;;;;;;5037428;28;20456;-80
2022/12/06 08:42:00;;;;;;;724.03;645.97;;;4.70;99.90;;;;;;5037014;28;20468;-79
2022/12/06 08:44:29;;;;;;;719.67;641.90;;;4.70;99.90;;;;;;5036926;28;20999;-80
2022/12/06 08:46:57;;;;;;;730.47;651.80;;;4.70;99.90;;;;;;5036991;28;20455;-79
2022/12/06 08:49:25;;;;;;;725.43;648.53;;;4.80;99.90;;;;;;5036936;28;20452;-80
2022/12/06 08:51:53;;;;;;;722.33;645.13;;;4.80;99.90;;;;;;5037440;28;20909;-80
2022/12/06 08:54:22;;;;;;;727.67;649.93;;;4.90;99.90;;;;;;5036672;28;20457;-80
2022/12/06 08:56:49;;;;;;;725.70;647.67;;;5.00;99.90;;;;;;5036545;28;20487;-80
2022/12/06 08:59:16;;;;;;;717.57;640.00;;;4.90;99.90;;;;;;5036990;28;20456;-79
2022/12/06 09:01:45;;;;;;;719.17;642.87;;;5.00;99.90;;;;;;5035963;28;20480;-80
2022/12/06 09:04:12;;;;;;;708.77;632.43;;;5.00;99.90;;;;;;5036740;28;20965;-79
2022/12/06 09:06:41;;;;;;;710.27;635.77;;;5.10;99.90;;;;;;5036625;28;20455;-80
2022/12/06 09:09:10;;;;;;;697.37;623.17;;;5.10;99.90;;;;;;5036938;28;20456;-80
2022/12/06 09:11:37;;;;;;;699.17;624.40;;;5.20;99.90;;;;;;5036286;28;20594;-78
2022/12/06 09:14:04;;;;;;;685.13;610.93;;;5.20;99.90;;;;;;5036340;28;20975;-79
2022/12/06 09:16:31;;;;;;;698.23;623.80;;;5.20;99.90;;;;;;5035653;28;20479;-80
2022/12/06 09:18:59;;;;;;;690.20;616.50;;;5.20;99.90;;;;;;5036101;28;20459;-80
2022/12/06 09:21:28;;;;;;;699.80;626.53;;;5.20;99.90;;;;;;5035380;28;20480;-78
2022/12/06 09:23:56;;;;;;;692.73;620.47;;;5.30;99.90;;;;;;5036566;28;20495;-82
2022/12/06 09:26:23;;;;;;;708.33;635.13;;;5.30;99.90;;;;;;5038491;28;20449;-82
2022/12/06 09:28:50;;;;;;;730.25;655.75;;;5.40;99.90;;;;;;5039560;28;20480;-83
2022/12/06 09:31:18;;;;;;;690.80;622.00;;;5.40;99.90;;;;;;5037871;28;20229;-80
2022/12/06 09:33:45;;;;;;;685.17;617.57;;;5.40;99.90;;;;;;5036078;28;20467;-80
2022/12/06 09:36:17;;;;;;;680.97;614.40;;;5.40;99.90;;;;;;5035749;28;20836;-81
2022/12/06 09:38:46;;;;;;;679.37;612.60;;;5.30;99.90;;;;;;5035623;28;20429;-81
2022/12/06 09:41:43;;;;;;;686.60;620.07;;;5.40;99.90;;;;;;5034724;28;20472;-79
2022/12/06 09:44:31;;;;;;;678.27;611.23;;;5.40;99.90;;;;;;5036046;28;20441;-78
2022/12/06 09:47:10;;;;;;;686.87;620.17;;;5.40;99.90;;;;;;5036362;28;20433;-80
2022/12/06 09:49:46;;;;;;;692.87;626.53;;;5.40;99.90;;;;;;5035866;28;20475;-79
2022/12/06 09:52:36;;;;;;;688.67;622.27;;;5.50;99.90;;;;;;5035917;28;20472;-80
2022/12/06 09:55:18;;;;;;;689.40;625.13;;;5.40;99.90;;;;;;5035995;28;20456;-80
2022/12/06 09:57:54;;;;;;;678.60;614.13;;;5.40;99.90;;;;;;5036321;28;20472;-81
2022/12/06 10:00:23;;;;;;;674.07;610.50;;;5.60;99.90;;;;;;5035198;28;20452;-79
2022/12/06 10:03:16;;;;;;;674.67;612.87;;;5.50;99.90;;;;;;5033466;28;20461;-79
2022/12/06 10:05:56;;;;;;;669.17;608.60;;;5.50;99.90;;;;;;5015682;28;20467;-80
2022/12/06 10:08:38;;;;;;;665.27;604.43;;;5.50;99.90;;;;;;5015716;28;20449;-80
2022/12/06 10:11:16;;;;;;;661.27;602.57;;;5.60;99.90;;;;;;5016000;28;20840;-79
2022/12/06 10:13:57;;;;;;;665.80;610.47;;;5.60;99.90;;;;;;5016247;28;20460;-78
2022/12/06 10:16:39;;;;;;;667.70;611.20;;;5.50;99.90;;;;;;5016032;28;20459;-80
2022/12/06 10:19:15;;;;;;;658.60;604.00;;;5.60;99.90;;;;;;5016843;28;20430;-80
2022/12/06 10:21:53;;;;;;;652.77;598.90;;;5.70;99.90;;;;;;5016861;28;20563;-80
2022/12/06 10:24:37;;;;;;;650.87;598.30;;;5.60;99.90;;;;;;5016508;28;20511;-80
2022/12/06 10:27:11;;;;;;;648.90;595.40;;;5.60;99.90;;;;;;5016556;28;20452;-80
2022/12/06 10:29:47;;;;;;;649.43;595.60;;;5.60;99.90;;;;;;5016591;28;20461;-80
2022/12/06 10:32:24;;;;;;;650.27;597.00;;;5.70;99.90;;;;;;5016527;28;20552;-80
2022/12/06 10:34:55;;;;;;;644.50;593.80;;;5.70;99.90;;;;;;5016964;28;20853;-80
2022/12/06 10:37:36;;;;;;;645.80;596.10;;;5.70;99.90;;;;;;5016528;28;20473;-80
2022/12/06 10:40:13;;;;;;;655.20;604.43;;;5.60;99.90;;;;;;5015978;28;20529;-77
2022/12/06 10:42:45;;;;;;;645.23;598.53;;;5.80;99.90;;;;;;5012850;28;20476;-79
2022/12/06 10:48:15;;;;;;;632.37;590.47;;;5.70;99.90;;;;;;5012734;28;20437;-79
2022/12/06 10:50:43;;;;;;;639.93;596.87;;;5.70;99.90;;;;;;5012692;28;20476;-79
2022/12/06 10:53:14;;;;;;;630.70;590.80;;;5.70;99.90;;;;;;5021517;28;20456;-78
2022/12/06 10:55:47;;;;;;;616.90;581.63;;;5.70;99.90;;;;;;5029877;28;20805;-78
2022/12/06 10:58:22;;;;;;;613.83;579.33;;;5.80;99.90;;;;;;5032651;28;20487;-78
2022/12/06 11:00:57;;;;;;;620.37;584.63;;;5.70;99.90;;;;;;5032411;28;20533;-77
2022/12/06 11:03:32;;;;;;;621.07;586.13;;;5.70;99.90;;;;;;5032582;28;20542;-78
2022/12/06 11:06:05;;;;;;;618.43;583.80;;;5.70;99.90;;;;;;5035168;28;20440;-79
2022/12/06 11:08:38;;;;;;;610.27;576.27;;;5.90;99.90;;;;;;5035307;28;20447;-79
2022/12/06 11:11:15;;;;;;;604.37;571.53;;;5.80;99.90;;;;;;5034482;28;21040;-80
2022/12/06 11:13:48;;;;;;;560.63;533.43;;;6.00;99.90;;;;;;5035977;28;20732;-80
2022/12/06 11:16:21;;;;;;;525.00;501.27;;;5.90;99.90;;;;;;5039311;28;20555;-80
2022/12/06 11:18:57;;;;;;;539.27;515.27;;;6.00;99.90;;;;;;5039720;28;20476;-80
2022/12/06 11:21:31;;;;;;;552.97;527.37;;;6.00;99.90;;;;;;5039198;28;21007;-81
2022/12/06 11:24:03;;;;;;;457.83;439.83;;;6.00;99.90;;;;;;5037761;28;20976;-79
2022/12/06 11:26:37;;;;;;;494.67;473.97;;;6.00;99.90;;;;;;5039010;28;20947;-80
2022/12/06 11:29:09;;;;;;;440.70;422.97;;;6.10;99.90;;;;;;5038877;28;20520;-80
2022/12/06 11:31:38;;;;;;;465.67;447.37;;;6.00;99.90;;;;;;5037861;28;20482;-79
2022/12/06 11:34:13;;;;;;;500.67;479.87;;;6.00;99.90;;;;;;5037423;28;20467;-80
2022/12/06 11:36:40;;;;;;;526.03;504.47;;;6.10;99.90;;;;;;5038391;28;20555;-80
2022/12/06 11:39:07;;;;;;;493.70;473.90;;;6.00;99.90;;;;;;5038469;28;20510;-80
2022/12/06 11:41:36;;;;;;;482.37;463.27;;;5.90;99.90;;;;;;5038774;28;20472;-80
2022/12/06 11:44:03;;;;;;;493.83;473.63;;;6.00;99.90;;;;;;5039199;28;20481;-80
2022/12/06 11:46:30;;;;;;;413.80;398.13;;;6.00;99.90;;;;;;5038378;28;20456;-79
2022/12/06 11:49:04;;;;;;;429.70;413.73;;;6.10;99.90;;;;;;5038066;28;20448;-81
2022/12/06 11:51:31;;;;;;;389.23;373.03;;;6.10;99.90;;;;;;5037388;28;20471;-79
2022/12/06 11:54:03;;;;;;;262.40;253.10;;;6.10;99.90;;;;;;5038683;28;20448;-80
2022/12/06 11:56:33;;;;;;;254.93;245.83;;;6.10;99.90;;;;;;5037982;28;20455;-80
2022/12/06 11:59:20;;;;;;;209.70;201.50;;;6.20;99.90;;;;;;5037597;28;20464;-79
2022/12/06 12:01:49;;;;;;;139.90;134.60;;;6.20;99.90;;;;;;5036565;28;20483;-79
2022/12/06 12:04:40;;;;;;;210.70;203.03;;;6.30;99.90;;;;;;5035850;28;20825;-79
2022/12/06 12:07:15;;;;;;;279.27;269.07;;;6.40;99.90;;;;;;5021194;28;20460;-80
2022/12/06 12:09:49;;;;;;;249.23;240.63;;;6.50;99.90;;;;;;5035751;28;20452;-79
2022/12/06 12:12:19;;;;;;;167.90;161.27;;;6.40;99.90;;;;;;5034698;28;20570;-80
2022/12/06 12:14:55;;;;;;;200.37;193.37;;;6.40;99.90;;;;;;5035445;28;20454;-79
2022/12/06 12:17:26;;;;;;;159.40;153.27;;;6.50;99.90;;;;;;5035653;28;20854;-79
2022/12/06 12:19:59;;;;;;;182.53;176.13;;;6.40;99.90;;;;;;5035239;28;20506;-79
2022/12/06 12:22:34;;;;;;;221.67;213.93;;;6.40;99.90;;;;;;5035007;28;20479;-79
2022/12/06 12:25:02;;;;;;;163.70;157.57;;;6.50;99.90;;;;;;5035680;28;20451;-79
2022/12/06 12:27:41;;;;;;;74.97;71.87;;;6.50;99.90;;;;;;5035048;28;20448;-81
2022/12/06 12:30:24;;;;;;;74.77;71.20;;;6.40;99.90;;;;;;5035160;28;20455;-80
2022/12/06 12:33:08;;;;;;;55.23;52.60;;;6.40;99.90;;;;;;5035559;28;20463;-80
2022/12/06 12:35:37;;;;;;;83.37;79.67;;;6.30;99.90;;;;;;5035512;28;20448;-80
2022/12/06 12:38:12;;;;;;;83.53;79.87;;;6.50;99.90;;;;;;5035102;28;20483;-80
2022/12/06 12:40:41;;;;;;;118.33;113.93;;;6.40;99.90;;;;;;5034671;28;20480;-79
2022/12/06 12:43:17;;;;;;;138.00;132.40;;;6.50;99.90;;;;;;5034568;28;20452;-79
2022/12/06 12:46:04;;;;;;;165.30;159.23;;;6.50;99.90;;;;;;5034860;28;20474;-79
2022/12/06 12:48:31;;;;;;;123.50;118.90;;;6.70;99.90;;;;;;5034930;28;20452;-79
2022/12/06 12:51:00;;;;;;;118.43;114.07;;;6.50;99.90;;;;;;5034635;28;20472;-79
2022/12/06 12:53:30;;;;;;;79.17;75.90;;;6.50;99.90;;;;;;5034820;28;20449;-79
2022/12/06 12:56:06;;;;;;;82.33;78.13;;;6.40;99.90;;;;;;5034607;28;20456;-79
2022/12/06 12:58:33;;;;;;;60.57;57.47;;;6.30;99.90;;;;;;5034401;28;20475;-79
2022/12/06 13:01:06;;;;;;;83.23;79.67;;;6.10;99.90;;;;;;5034237;28;20480;-79
2022/12/06 13:03:34;;;;;;;114.40;109.90;;;6.10;99.90;;;;;;5034780;28;20449;-79